Time;durP1;ratioP1;P1;durP2;ratioP2;P2;SDS_P1;SDS_P2;PMS_P1;PMS_P2;Temp;Humidity;BMP_temperature;BMP_pressure;BME280_temperature;BME280_humidity;BME280_pressure;Samples;Min_cycle;Max_cycle;Signal;HPM_P1;HPM_P2
2022/09/25 00:01:10;;;;;;;1.27;1.10;;;;;;;11.31;92.08;101478.16;5076904;28;20017;-92
2022/09/25 00:03:35;;;;;;;1.75;1.20;;;;;;;11.25;92.21;101476.47;5076940;28;20017;-91
2022/09/25 00:06:22;;;;;;;1.00;1.00;;;;;;;11.24;92.10;101481.66;5076834;28;20020;-91
2022/09/25 00:08:47;;;;;;;;;;;;;;;11.27;92.00;101489.44;5077301;28;20029;-92
2022/09/25 00:11:39;;;;;;;2.10;1.00;;;;;;;11.23;92.22;101488.59;5076876;28;20015;-91
2022/09/25 00:14:05;;;;;;;1.63;1.10;;;;;;;11.21;92.08;101490.34;5076777;28;20032;-91
2022/09/25 00:16:31;;;;;;;0.90;0.90;;;;;;;11.23;92.02;101491.19;5135771;22;20052;-92
2022/09/25 00:21:42;;;;;;;0.80;0.80;;;;;;;11.23;91.95;101493.78;5076591;28;20031;-91
2022/09/25 00:24:09;;;;;;;0.90;0.90;;;;;;;11.23;91.91;101499.00;5076276;28;20029;-91
2022/09/25 00:29:23;;;;;;;1.38;1.02;;;;;;;11.19;91.80;101497.28;5076654;28;20480;-91
2022/09/25 00:31:48;;;;;;;1.13;0.87;;;;;;;11.17;91.97;101496.41;5076402;28;20024;-91
2022/09/25 00:34:40;;;;;;;1.33;1.20;;;;;;;11.12;91.93;101504.25;5075987;28;20046;-92
2022/09/25 00:37:05;;;;;;;1.70;1.30;;;;;;;11.09;91.93;101496.47;5076544;28;20111;-92
2022/09/25 00:39:43;;;;;;;1.97;1.40;;;;;;;11.05;92.15;101492.19;5076465;28;20103;-91
2022/09/25 00:42:12;;;;;;;1.20;1.10;;;;;;;11.05;91.81;101492.19;5076136;28;20024;-91
2022/09/25 00:45:00;;;;;;;1.90;1.08;;;;;;;11.07;91.88;101480.06;5076090;28;20389;-91
2022/09/25 00:47:58;;;;;;;1.17;0.90;;;;;;;11.07;92.03;101498.25;5075904;28;20083;-92
2022/09/25 00:50:52;;;;;;;2.42;1.30;;;;;;;11.03;92.09;101490.47;5076359;28;20024;-91
2022/09/25 00:53:23;;;;;;;1.00;1.00;;;;;;;10.98;92.17;101490.47;5076258;28;20021;-91
2022/09/25 00:56:12;;;;;;;1.50;1.40;;;;;;;10.98;92.05;101500.88;5075941;28;20239;-91
2022/09/25 00:58:39;;;;;;;1.40;1.30;;;;;;;10.93;92.20;101493.13;5076156;28;20032;-92
2022/09/25 01:01:26;;;;;;;1.70;1.30;;;;;;;10.93;92.24;101503.50;5076040;28;20468;-91
2022/09/25 01:03:51;;;;;;;2.88;1.70;;;;;;;10.87;92.40;101503.56;5055572;28;20049;-92
2022/09/25 01:06:17;;;;;;;3.53;1.60;;;;;;;10.83;92.67;101501.84;5056083;28;20108;-92
2022/09/25 01:09:30;;;;;;;1.30;1.30;;;;;;;10.84;92.31;101507.91;5055799;28;20428;-92
2022/09/25 01:11:55;;;;;;;3.60;1.60;;;;;;;10.77;92.26;101501.88;5055875;28;20029;-92
2022/09/25 01:14:21;;;;;;;1.40;1.30;;;;;;;10.77;92.32;101504.47;5055844;28;20025;-92
2022/09/25 01:17:39;;;;;;;4.53;2.17;;;;;;;10.73;92.83;101501.03;5055914;28;20139;-92
2022/09/25 01:20:11;;;;;;;3.08;1.77;;;;;;;10.73;92.56;101503.63;5055555;28;20068;-92
2022/09/25 01:22:54;;;;;;;1.58;1.48;;;;;;;10.70;92.87;101501.06;5055851;28;20104;-92
2022/09/25 01:25:56;;;;;;;1.83;1.73;;;;;;;10.67;92.77;101508.84;5049224;28;20076;-92
2022/09/25 01:29:16;;;;;;;3.53;1.85;;;;;;;10.61;93.21;101507.16;5035533;28;20037;-92
2022/09/25 01:31:49;;;;;;;3.55;2.20;;;;;;;10.55;92.97;101501.13;5013140;28;20041;-91
2022/09/25 01:34:52;;;;;;;2.42;1.83;;;;;;;10.55;92.87;101502.00;5035105;28;20025;-92
2022/09/25 01:37:54;;;;;;;3.30;2.10;;;;;;;10.47;93.59;101509.81;5034731;28;20033;-93
2022/09/25 01:40:32;;;;;;;2.63;2.00;;;;;;;10.45;93.21;101505.50;5034991;28;20021;-92
2022/09/25 01:43:17;;;;;;;2.13;1.77;;;;;;;10.44;92.84;101512.41;5035206;28;20080;-92
2022/09/25 01:46:07;;;;;;;2.00;1.73;;;;;;;10.42;93.13;101511.53;5035397;28;20104;-92
2022/09/25 01:48:35;;;;;;;2.42;1.67;;;;;;;10.40;92.85;101510.72;5034977;28;20367;-92
2022/09/25 01:51:29;;;;;;;2.15;1.60;;;;;;;10.41;92.86;101508.97;5034970;28;20037;-92
2022/09/25 01:53:59;;;;;;;1.75;1.40;;;;;;;10.40;92.73;101512.44;5034094;28;20030;-92
2022/09/25 01:56:53;;;;;;;1.35;1.00;;;;;;;10.36;92.71;101517.59;5035328;28;20048;-93
2022/09/25 02:00:07;;;;;;;1.77;1.35;;;;;;;10.35;92.55;101523.69;5035115;28;20037;-92
2022/09/25 02:02:41;;;;;;;1.17;1.17;;;;;;;10.34;92.59;101513.28;4993811;28;20026;-91
2022/09/25 02:05:38;;;;;;;2.22;1.17;;;;;;;10.34;92.34;101508.09;4993661;28;20070;-92
2022/09/25 02:08:22;;;;;;;0.82;0.82;;;;;;;10.32;92.30;101502.91;4993500;28;20038;-92
2022/09/25 02:11:13;;;;;;;1.40;0.98;;;;;;;10.31;92.29;101515.88;4993663;28;20045;-92
2022/09/25 02:14:38;;;;;;;1.15;1.00;;;;;;;10.30;92.37;101514.19;4993600;28;20041;-92
2022/09/25 02:17:09;;;;;;;0.88;0.88;;;;;;;10.25;92.49;101516.75;4983666;28;20073;-92
2022/09/25 02:22:33;;;;;;;1.05;1.05;;;;;;;10.20;91.87;101505.56;4993978;28;20052;-92
2022/09/25 02:25:19;;;;;;;0.93;0.93;;;;;;;10.19;91.98;101503.81;4990036;28;20130;-93
2022/09/25 02:27:45;;;;;;;1.05;1.05;;;;;;;10.17;91.91;101505.56;4993349;28;20034;-92
2022/09/25 02:30:33;;;;;;;0.93;0.90;;;;;;;10.13;92.06;101516.81;4993215;28;20041;-92
2022/09/25 02:32:58;;;;;;;0.85;0.85;;;;;;;10.08;92.29;101522.00;4993235;28;20507;-92
2022/09/25 02:35:24;;;;;;;1.20;1.20;;;;;;;10.05;92.18;101515.09;5000620;28;20041;-92
2022/09/25 02:38:17;;;;;;;1.20;1.00;;;;;;;10.02;92.02;101515.09;5054002;28;20066;-92
2022/09/25 02:41:35;;;;;;;1.08;0.98;;;;;;;9.98;92.22;101513.38;5054727;28;20037;-93
2022/09/25 02:44:31;;;;;;;1.33;1.10;;;;;;;9.96;92.16;101517.72;5054095;28;20032;-93
2022/09/25 02:47:33;;;;;;;1.30;1.10;;;;;;;9.94;92.04;101521.19;5053715;28;20107;-94
2022/09/25 02:50:51;;;;;;;0.70;0.70;;;;;;;9.90;92.05;101517.75;5054123;28;20040;-93
2022/09/25 02:53:53;;;;;;;0.95;0.95;;;;;;;9.86;92.16;101510.81;5054203;28;20479;-92
2022/09/25 02:56:46;;;;;;;0.93;0.93;;;;;;;9.83;91.97;101505.63;5059187;28;20040;-93
2022/09/25 02:59:21;;;;;;;1.10;1.10;;;;;;;9.77;91.89;101497.88;5073967;28;20025;-93
2022/09/25 03:05:12;;;;;;;1.10;1.00;;;;;;;9.68;92.30;101497.00;5074214;28;20055;-93
2022/09/25 03:14:01;;;;;;;0.85;0.85;;;;;;;9.57;92.08;101501.31;5074342;28;20048;-93
2022/09/25 03:16:50;;;;;;;1.15;1.00;;;;;;;9.56;92.13;101504.81;5074153;28;20078;-93
2022/09/25 03:19:18;;;;;;;0.95;0.95;;;;;;;9.53;92.14;101497.03;5074009;28;20027;-92
2022/09/25 03:22:02;;;;;;;0.90;0.90;;;;;;;9.48;92.27;101498.75;5073851;28;20111;-92
2022/09/25 03:24:28;;;;;;;1.33;1.10;;;;;;;9.47;92.02;101503.06;5073523;28;20013;-93
2022/09/25 03:26:53;;;;;;;0.83;0.83;;;;;;;9.46;92.15;101503.94;5073645;28;20098;-92
2022/09/25 03:29:20;;;;;;;1.23;0.90;;;;;;;9.43;92.18;101502.22;5073425;28;20119;-92
2022/09/25 03:32:01;;;;;;;0.70;0.70;;;;;;;9.41;92.37;101503.94;5021733;28;20131;-92
2022/09/25 03:34:27;;;;;;;1.38;1.27;;;;;;;9.40;92.37;101509.97;5073917;28;20052;-93
2022/09/25 03:36:52;;;;;;;1.00;1.00;;;;;;;9.39;92.18;101502.22;5073825;28;20147;-93
2022/09/25 03:39:36;;;;;;;1.10;1.00;;;;;;;9.37;92.44;101507.38;5073549;28;20465;-93
2022/09/25 03:42:01;;;;;;;0.80;0.80;;;;;;;9.34;92.26;101503.94;5073469;28;20086;-93
2022/09/25 03:44:26;;;;;;;0.93;0.93;;;;;;;9.32;92.27;101498.75;5073337;28;20422;-93
2022/09/25 03:46:52;;;;;;;1.10;1.10;;;;;;;9.25;92.44;101494.41;5073522;28;20027;-93
2022/09/25 03:49:32;;;;;;;0.97;0.97;;;;;;;9.22;92.34;101491.84;5073083;28;20025;-93
2022/09/25 03:51:59;;;;;;;1.67;1.10;;;;;;;9.18;92.52;101503.91;5072576;28;20107;-92
2022/09/25 03:54:24;;;;;;;1.25;1.15;;;;;;;9.17;92.40;101507.38;5073715;28;20530;-93
2022/09/25 03:56:50;;;;;;;1.13;1.13;;;;;;;9.13;92.29;101503.06;5073415;28;20020;-93
2022/09/25 03:59:38;;;;;;;1.27;1.10;;;;;;;9.10;92.33;101505.63;5073436;28;20476;-92
2022/09/25 04:02:03;;;;;;;0.90;0.90;;;;;;;9.06;92.27;101504.78;5073566;28;20032;-93
2022/09/25 04:04:44;;;;;;;2.37;1.10;;;;;;;9.06;92.52;101501.34;5072870;28;20024;-92
2022/09/25 04:07:10;;;;;;;1.17;1.17;;;;;;;9.03;92.61;101506.50;5073042;28;20021;-93
2022/09/25 04:09:35;;;;;;;1.10;1.10;;;;;;;9.02;92.55;101503.03;5073489;28;20111;-92
2022/09/25 04:12:01;;;;;;;1.10;1.10;;;;;;;8.99;92.32;101503.03;5072794;28;20029;-93
2022/09/25 04:14:45;;;;;;;0.90;0.90;;;;;;;9.00;92.65;101504.78;5073317;28;20099;-92
2022/09/25 04:17:11;;;;;;;1.98;1.27;;;;;;;8.98;92.71;101498.72;5076480;28;20023;-92
2022/09/25 04:19:36;;;;;;;1.40;1.30;;;;;;;8.91;92.37;101492.66;5076247;28;20020;-92
2022/09/25 04:22:02;;;;;;;1.02;1.02;;;;;;;8.85;92.82;101495.22;5077056;28;20023;-92
2022/09/25 04:24:48;;;;;;;1.27;1.10;;;;;;;8.79;92.49;101496.06;5076534;28;20029;-92
2022/09/25 04:27:35;;;;;;;1.27;1.17;;;;;;;8.77;92.39;101491.75;5036664;28;20057;-92
2022/09/25 04:30:01;;;;;;;1.23;1.10;;;;;;;8.69;92.46;101489.16;5036224;28;20018;-92
2022/09/25 04:35:16;;;;;;;2.20;1.48;;;;;;;8.67;92.69;101502.94;5036544;28;20033;-92
2022/09/25 04:37:41;;;;;;;1.60;1.50;;;;;;;8.64;92.62;101499.50;5036511;28;20029;-92
2022/09/25 04:40:07;;;;;;;1.10;1.10;;;;;;;8.66;92.83;101504.69;5036428;28;20034;-92
2022/09/25 04:43:28;;;;;;;1.40;1.30;;;;;;;8.64;92.79;101499.50;5036406;28;20026;-92
2022/09/25 04:45:53;;;;;;;2.28;1.40;;;;;;;8.59;92.73;101490.84;4975618;28;20034;-93
2022/09/25 04:48:18;;;;;;;2.30;1.60;;;;;;;8.54;92.68;101487.38;4975422;28;20038;-91
2022/09/25 04:51:03;;;;;;;1.60;1.50;;;;;;;8.47;92.56;101491.66;4975793;28;20046;-93
2022/09/25 04:53:30;;;;;;;1.70;1.60;;;;;;;8.46;92.53;101500.25;4975700;28;20558;-92
2022/09/25 04:56:18;;;;;;;2.08;1.52;;;;;;;8.47;92.79;101496.84;4975578;28;20026;-92
2022/09/25 04:58:48;;;;;;;2.13;1.60;;;;;;;8.44;92.60;101490.75;4975409;28;20085;-92
2022/09/25 05:01:15;;;;;;;1.77;1.63;;;;;;;8.45;92.55;101493.34;4975289;28;20039;-93
2022/09/25 05:03:58;;;;;;;1.83;1.73;;;;;;;8.43;92.55;101495.09;4975175;28;20037;-93
2022/09/25 05:06:25;;;;;;;1.80;1.70;;;;;;;8.41;92.83;101491.63;4975333;28;20039;-92
2022/09/25 05:08:51;;;;;;;1.80;1.70;;;;;;;8.43;92.66;101494.19;4975118;28;20502;-89
2022/09/25 05:11:34;;;;;;;1.70;1.60;;;;;;;8.39;92.63;101487.31;4975109;28;20027;-90
2022/09/25 05:14:00;;;;;;;1.75;1.65;;;;;;;8.33;92.72;101483.81;4974963;28;20035;-90
2022/09/25 05:16:27;;;;;;;1.50;1.40;;;;;;;8.31;92.46;101480.34;4974749;28;20111;-90
2022/09/25 05:19:13;;;;;;;2.08;1.60;;;;;;;8.28;92.75;101479.47;4970205;28;20065;-90
2022/09/25 05:21:39;;;;;;;1.70;1.60;;;;;;;8.27;92.74;101477.75;5015765;28;20026;-89
2022/09/25 05:24:07;;;;;;;2.80;1.80;;;;;;;8.23;92.72;101482.06;5015763;28;20117;-90
2022/09/25 05:26:33;;;;;;;1.92;1.70;;;;;;;8.24;92.98;101483.78;5030014;28;20049;-90
2022/09/25 05:29:14;;;;;;;1.95;1.85;;;;;;;8.23;92.69;101476.88;5026719;28;20041;-89
2022/09/25 05:31:41;;;;;;;1.95;1.77;;;;;;;8.23;92.71;101476.00;5034862;28;20036;-89
2022/09/25 05:34:08;;;;;;;1.90;1.80;;;;;;;8.23;92.74;101482.06;5035275;28;20025;-90
2022/09/25 05:36:51;;;;;;;1.70;1.55;;;;;;;8.19;92.60;101470.84;5034851;28;20104;-89
2022/09/25 05:39:16;;;;;;;1.50;1.40;;;;;;;8.19;92.83;101476.00;5035606;28;20033;-89
2022/09/25 05:41:41;;;;;;;1.70;1.60;;;;;;;8.19;92.78;101482.88;5035280;28;20056;-90
2022/09/25 05:44:08;;;;;;;1.60;1.50;;;;;;;8.15;92.67;101478.56;5054506;28;20021;-87
2022/09/25 05:46:37;;;;;;;2.30;1.80;;;;;;;8.12;92.84;101479.41;5054776;28;20454;-88
2022/09/25 05:49:04;;;;;;;2.08;1.63;;;;;;;8.10;92.81;101478.56;5053859;28;20029;-88
2022/09/25 05:51:46;;;;;;;1.90;1.70;;;;;;;8.08;92.73;101487.13;5053874;28;20535;-88
2022/09/25 05:54:14;;;;;;;2.65;2.00;;;;;;;8.08;92.95;101487.13;5054049;28;20064;-88
2022/09/25 05:56:42;;;;;;;2.25;1.67;;;;;;;8.06;92.79;101489.72;5054535;28;20033;-88
2022/09/25 05:59:08;;;;;;;1.65;1.55;;;;;;;8.07;92.63;101490.56;5052848;28;20032;-84
2022/09/25 06:01:33;;;;;;;2.30;1.80;;;;;;;8.06;92.85;101502.66;5053782;28;20023;-83
2022/09/25 06:03:58;;;;;;;1.80;1.70;;;;;;;8.07;92.91;101495.75;5054103;28;20032;-93
2022/09/25 06:06:24;;;;;;;2.77;1.70;;;;;;;8.10;92.70;101499.25;5054646;28;20036;-92
2022/09/25 06:08:49;;;;;;;2.42;1.70;;;;;;;8.13;93.25;101499.22;5054703;28;20083;-92
2022/09/25 06:11:35;;;;;;;1.70;1.60;;;;;;;8.17;92.89;101493.22;5054141;28;20079;-91
2022/09/25 06:14:02;;;;;;;2.13;1.60;;;;;;;8.21;93.12;101498.44;5054868;28;20029;-92
2022/09/25 06:16:27;;;;;;;;;;;;;;;8.27;92.99;101496.75;5055553;28;20017;-91
2022/09/25 06:18:53;;;;;;;1.50;1.40;;;;;;;8.29;93.16;101495.00;5054206;28;19982;-92
2022/09/25 06:21:42;;;;;;;1.98;1.77;;;;;;;8.37;93.09;101500.22;5054508;28;20021;-91
2022/09/25 06:24:07;;;;;;;2.55;1.50;;;;;;;8.39;93.15;101495.91;5052096;28;20025;-92
2022/09/25 06:26:54;;;;;;;1.97;1.70;;;;;;;8.47;93.22;101498.53;5054305;28;20436;-91
2022/09/25 06:29:21;;;;;;;1.80;1.67;;;;;;;8.49;92.99;101497.72;5053293;28;20032;-91
2022/09/25 06:31:46;;;;;;;1.60;1.50;;;;;;;8.55;93.18;101499.47;5051930;28;20091;-91
2022/09/25 06:34:27;;;;;;;1.52;1.42;;;;;;;8.73;93.39;101503.84;5054005;28;20422;-93
2022/09/25 06:36:53;;;;;;;1.50;1.40;;;;;;;9.14;94.46;101503.91;5052660;28;20481;-89
2022/09/25 06:39:18;;;;;;;1.58;1.45;;;;;;;9.85;93.75;101498.72;5053120;28;20059;-88
2022/09/25 06:42:04;;;;;;;2.33;1.48;;;;;;;10.55;92.61;101495.94;5053348;28;20029;-89
2022/09/25 06:44:29;;;;;;;1.48;1.38;;;;;;;10.95;91.99;101496.56;5053665;28;20055;-88
2022/09/25 06:46:55;;;;;;;1.27;1.20;;;;;;;11.83;91.97;101496.75;5052991;28;20017;-88
2022/09/25 06:49:20;;;;;;;1.50;1.40;;;;;;;13.65;90.17;101498.63;5053486;28;20024;-88
2022/09/25 06:52:08;;;;;;;1.27;1.10;;;;;;;15.76;85.58;101499.31;5053807;28;20358;-91
2022/09/25 06:54:49;;;;;;;1.20;1.10;;;;;;;17.31;82.63;101505.28;5053492;28;20048;-89
2022/09/25 06:57:14;;;;;;;1.33;1.20;;;;;;;17.97;79.51;101511.78;5053762;28;20021;-91
2022/09/25 06:59:42;;;;;;;1.63;1.33;;;;;;;17.79;74.76;101515.94;5053472;28;20104;-88
2022/09/25 07:05:08;;;;;;;1.70;1.60;;;;;;;15.81;74.78;101518.34;5053384;28;20099;-91
2022/09/25 07:07:33;;;;;;;1.85;1.60;;;;;;;14.92;77.92;101519.63;5053575;28;20052;-91
2022/09/25 07:10:00;;;;;;;4.87;2.50;;;;;;;13.97;75.37;101520.66;5053458;28;20029;-92
2022/09/25 07:12:25;;;;;;;6.65;3.40;;;;;;;13.13;79.41;101516.84;5053658;28;20527;-90
2022/09/25 07:14:50;;;;;;;5.57;3.30;;;;;;;12.49;80.90;101518.56;5053525;28;20025;-90
2022/09/25 07:17:15;;;;;;;6.43;3.10;;;;;;;12.12;82.23;101522.47;5053046;28;20029;-91
2022/09/25 07:19:41;;;;;;;4.90;2.80;;;;;;;11.79;84.28;101515.84;5053389;28;20067;-93
2022/09/25 07:22:06;;;;;;;5.50;3.20;;;;;;;11.53;86.08;101523.00;5053545;28;20358;-93
2022/09/25 07:24:53;;;;;;;5.57;3.23;;;;;;;11.32;86.56;101524.03;5052674;28;20029;-92
2022/09/25 07:27:19;;;;;;;4.30;3.13;;;;;;;11.20;87.14;101519.78;5053251;28;20033;-92
2022/09/25 07:29:44;;;;;;;3.43;2.80;;;;;;;11.15;87.15;101521.53;5053741;28;20516;-92
2022/09/25 07:32:30;;;;;;;2.53;2.17;;;;;;;11.17;87.97;101530.19;5053593;28;20029;-91
2022/09/25 07:34:57;;;;;;;2.20;2.00;;;;;;;11.16;87.73;101528.47;5053273;28;20024;-90
2022/09/25 07:37:39;;;;;;;;;;;;;;;11.21;88.24;101528.44;5054084;28;20069;-91
2022/09/25 07:40:04;;;;;;;3.13;2.00;;;;;;;11.23;88.46;101531.88;5072035;28;19954;-91
2022/09/25 07:42:30;;;;;;;2.90;2.10;;;;;;;11.22;89.31;101523.25;5073264;28;20017;-91
2022/09/25 07:44:55;;;;;;;2.20;2.00;;;;;;;11.28;88.92;101524.94;5073742;28;20048;-91
2022/09/25 07:47:20;;;;;;;3.23;1.93;;;;;;;11.33;89.11;101522.31;5073672;28;20103;-88
2022/09/25 07:50:01;;;;;;;2.57;2.00;;;;;;;11.37;88.74;101518.81;5072986;28;20048;-89
2022/09/25 07:52:26;;;;;;;3.25;1.92;;;;;;;11.43;89.48;101519.59;5076886;28;20031;-88
2022/09/25 07:54:51;;;;;;;2.40;2.20;;;;;;;11.48;89.55;101513.50;5076568;28;20024;-90
2022/09/25 07:57:19;;;;;;;3.10;2.00;;;;;;;11.54;89.02;101516.94;5076851;28;20029;-89
2022/09/25 07:59:59;;;;;;;2.10;1.80;;;;;;;11.61;89.22;101515.13;5068660;28;20056;-89
2022/09/25 08:02:25;;;;;;;4.93;2.50;;;;;;;11.70;88.43;101524.59;5076376;28;20059;-88
2022/09/25 08:04:50;;;;;;;2.43;2.03;;;;;;;11.75;88.93;101517.59;5076965;28;20033;-89
2022/09/25 08:07:34;;;;;;;2.47;1.80;;;;;;;11.82;89.10;101511.47;5077313;28;20032;-88
2022/09/25 08:09:59;;;;;;;3.75;2.10;;;;;;;11.90;88.66;101507.06;5076645;28;20066;-88
2022/09/25 08:12:25;;;;;;;3.53;2.10;;;;;;;11.98;88.90;101520.03;5117645;22;20045;-88
2022/09/25 08:15:06;;;;;;;4.43;2.47;;;;;;;12.04;88.54;101519.09;5056498;28;20031;-89
2022/09/25 08:17:32;;;;;;;4.60;2.50;;;;;;;12.11;87.62;101520.75;5056716;28;20108;-87
2022/09/25 08:19:57;;;;;;;5.33;2.67;;;;;;;12.16;87.30;101513.75;5056499;28;20465;-88
2022/09/25 08:22:41;;;;;;;7.10;2.70;;;;;;;12.25;87.11;101511.94;5056948;28;20023;-89
2022/09/25 08:25:06;;;;;;;3.20;2.15;;;;;;;12.33;87.80;101507.50;5056240;28;20021;-89
2022/09/25 08:27:38;;;;;;;2.10;1.80;;;;;;;12.41;88.01;101508.25;5056351;28;20500;-89
2022/09/25 08:30:18;;;;;;;4.68;2.20;;;;;;;12.49;85.41;101510.78;5050510;28;20037;-89
2022/09/25 08:32:43;;;;;;;5.65;2.15;;;;;;;12.57;87.15;101516.72;5055994;28;20080;-88
2022/09/25 08:35:09;;;;;;;3.30;1.90;;;;;;;12.70;87.21;101513.97;5055468;28;20033;-86
2022/09/25 08:37:53;;;;;;;1.60;1.50;;;;;;;12.84;87.48;101509.44;5055561;28;20025;-88
2022/09/25 08:40:25;;;;;;;1.30;1.20;;;;;;;12.96;87.40;101509.28;5055762;28;20033;-88
2022/09/25 08:43:04;;;;;;;3.83;1.50;;;;;;;13.10;86.45;101519.47;5047276;28;20445;-87
2022/09/25 08:51:13;;;;;;;1.55;1.10;;;;;;;13.47;86.06;101525.88;5055696;28;20103;-87
2022/09/25 08:53:53;;;;;;;3.20;1.63;;;;;;;13.55;84.06;101530.97;5064636;28;20030;-85
2022/09/25 08:56:18;;;;;;;2.30;1.50;;;;;;;13.64;82.90;101527.38;5075396;28;20096;-86
2022/09/25 08:59:05;;;;;;;1.77;1.27;;;;;;;13.74;83.72;101523.69;5075280;28;20108;-86
2022/09/25 09:01:52;;;;;;;3.45;1.85;;;;;;;13.79;80.77;101524.47;5074233;28;20024;-86
2022/09/25 09:04:51;;;;;;;3.53;1.65;;;;;;;13.87;81.81;101517.38;5075102;28;20024;-86
2022/09/25 09:07:41;;;;;;;1.40;1.30;;;;;;;14.02;81.83;101521.44;5069216;28;20029;-86
2022/09/25 09:10:06;;;;;;;4.40;1.65;;;;;;;14.12;79.88;101518.66;5070486;28;20563;-85
2022/09/25 09:13:00;;;;;;;1.90;1.57;;;;;;;14.13;77.14;101526.44;5073790;28;20083;-85
2022/09/25 09:15:54;;;;;;;5.28;1.77;;;;;;;14.15;80.13;101513.38;5069312;28;20082;-86
2022/09/25 09:18:23;;;;;;;4.45;1.58;;;;;;;14.17;77.96;101511.63;5052918;28;20036;-85
2022/09/25 09:21:09;;;;;;;4.28;1.67;;;;;;;14.18;80.02;101503.75;5053760;28;20028;-84
2022/09/25 09:24:06;;;;;;;2.60;1.40;;;;;;;14.17;79.00;101507.25;5058430;28;20029;-87
2022/09/25 09:27:22;;;;;;;3.50;1.63;;;;;;;14.15;74.28;101510.78;5055791;28;20041;-86
2022/09/25 09:30:09;;;;;;;2.20;1.23;;;;;;;14.19;78.59;101500.25;4973050;28;20080;-85
2022/09/25 09:32:49;;;;;;;1.75;1.00;;;;;;;14.37;79.06;101503.34;5049379;28;20501;-85
2022/09/25 09:35:28;;;;;;;4.78;1.30;;;;;;;14.52;74.67;101500.44;5054031;28;20128;-85
2022/09/25 09:38:19;;;;;;;2.40;1.10;;;;;;;14.66;75.92;101505.34;5053719;28;20036;-85
2022/09/25 09:41:07;;;;;;;2.45;1.15;;;;;;;14.87;70.91;101502.34;5054586;28;20037;-85
2022/09/25 09:43:42;;;;;;;2.88;1.00;;;;;;;14.98;74.25;101497.72;5053583;28;20535;-85
2022/09/25 09:46:31;;;;;;;3.40;1.43;;;;;;;15.07;73.84;101494.03;5054126;28;20068;-85
2022/09/25 09:49:15;;;;;;;0.77;0.70;;;;;;;15.25;74.77;101495.38;5006706;28;20344;-84
2022/09/25 09:52:13;;;;;;;1.52;0.73;;;;;;;15.42;75.37;101497.56;5053927;28;20037;-85
2022/09/25 09:55:14;;;;;;;2.80;1.13;;;;;;;15.42;69.17;101500.19;5042140;28;20033;-85
2022/09/25 09:57:46;;;;;;;5.13;1.33;;;;;;;15.29;67.05;101496.97;5050055;28;20060;-86
2022/09/25 10:00:17;;;;;;;3.92;1.30;;;;;;;15.11;67.81;101495.66;5053751;28;20414;-85
2022/09/25 10:02:58;;;;;;;1.70;0.95;;;;;;;15.15;68.23;101486.88;5053757;28;20031;-85
2022/09/25 10:05:29;;;;;;;3.83;1.08;;;;;;;15.25;67.94;101488.34;5053533;28;20032;-85
2022/09/25 10:07:54;;;;;;;4.05;1.27;;;;;;;15.42;71.67;101490.56;5053481;28;20071;-84
2022/09/25 10:10:22;;;;;;;6.40;1.20;;;;;;;15.64;70.16;101486.53;5052668;28;20629;-85
2022/09/25 10:12:53;;;;;;;0.93;0.70;;;;;;;15.83;71.27;101484.25;5052963;28;20052;-84
2022/09/25 10:15:33;;;;;;;2.67;1.08;;;;;;;15.93;68.33;101484.91;5053586;28;20466;-84
2022/09/25 10:18:02;;;;;;;2.35;1.17;;;;;;;15.77;67.31;101484.44;5052581;28;20021;-84
2022/09/25 10:20:44;;;;;;;1.88;0.82;;;;;;;15.61;68.89;101479.59;5053625;28;20374;-85
2022/09/25 10:23:31;;;;;;;2.50;0.98;;;;;;;15.57;66.06;101475.38;5053081;28;20397;-86
2022/09/25 10:25:57;;;;;;;3.17;0.80;;;;;;;15.56;68.40;101484.97;5052231;28;20017;-86
2022/09/25 10:28:27;;;;;;;1.93;0.60;;;;;;;15.59;67.72;101482.28;5053399;28;20039;-86
2022/09/25 10:30:54;;;;;;;2.83;0.70;;;;;;;15.62;62.32;101478.72;5053182;28;20027;-86
2022/09/25 10:33:22;;;;;;;3.33;1.00;;;;;;;15.77;67.78;101474.81;5052478;28;20042;-86
2022/09/25 10:35:50;;;;;;;2.88;0.80;;;;;;;16.02;68.74;101474.19;5053078;28;20023;-86
2022/09/25 10:38:32;;;;;;;3.45;0.90;;;;;;;16.09;63.37;101473.13;5052444;28;20021;-85
2022/09/25 10:41:00;;;;;;;1.88;0.90;;;;;;;16.07;62.36;101474.94;5053002;28;20121;-85
2022/09/25 10:43:25;;;;;;;2.92;1.25;;;;;;;16.18;62.13;101474.59;5053055;28;20025;-86
2022/09/25 10:46:10;;;;;;;1.90;1.07;;;;;;;16.34;64.02;101475.88;5051951;28;20123;-85
2022/09/25 10:51:21;;;;;;;0.50;0.50;;;;;;;16.76;63.48;101477.25;5053333;28;20055;-85
2022/09/25 10:53:48;;;;;;;0.87;0.87;;;;;;;16.96;62.90;101478.41;5067897;22;20490;-85
2022/09/25 10:56:18;;;;;;;1.25;0.60;;;;;;;16.91;61.49;101480.28;5052957;28;20025;-85
2022/09/25 10:58:52;;;;;;;0.63;0.40;;;;;;;16.86;65.02;101472.56;5059740;28;20025;-86
2022/09/25 11:01:18;;;;;;;1.45;0.68;;;;;;;16.88;61.22;101469.91;5067851;28;20028;-85
2022/09/25 11:03:51;;;;;;;1.13;0.87;;;;;;;16.94;59.21;101481.06;5073509;28;20082;-84
2022/09/25 11:06:21;;;;;;;1.67;0.80;;;;;;;16.89;58.83;101471.63;5072734;28;20017;-86
2022/09/25 11:09:04;;;;;;;2.13;0.93;;;;;;;16.83;54.99;101472.69;5073118;28;20028;-90
2022/09/25 11:11:30;;;;;;;1.88;1.00;;;;;;;16.93;57.38;101470.63;5072755;28;20054;-87
2022/09/25 11:13:58;;;;;;;1.27;0.60;;;;;;;17.05;57.10;101467.63;5071683;28;20025;-86
2022/09/25 11:16:46;;;;;;;0.80;0.50;;;;;;;17.27;59.61;101473.03;5072587;28;20314;-87
2022/09/25 11:19:21;;;;;;;2.05;0.70;;;;;;;17.27;61.97;101480.03;5054442;28;21681;-87
2022/09/25 11:21:55;;;;;;;1.73;0.80;;;;;;;16.96;56.28;101476.66;5055430;28;20049;-87
2022/09/25 11:24:59;;;;;;;3.15;1.20;;;;;;;16.41;58.27;101473.94;5052938;28;20373;-87
2022/09/25 11:27:49;;;;;;;2.60;1.10;;;;;;;16.04;61.20;101473.22;5018274;28;20036;-85
2022/09/25 11:30:19;;;;;;;1.67;0.88;;;;;;;15.95;63.27;101475.28;5056738;28;20020;-86
2022/09/25 11:32:58;;;;;;;0.88;0.70;;;;;;;16.04;61.35;101468.00;5057852;28;20040;-86
2022/09/25 11:35:52;;;;;;;0.77;0.60;;;;;;;16.17;59.28;101463.28;5075780;28;20073;-82
2022/09/25 11:41:35;;;;;;;0.95;0.60;;;;;;;16.61;60.42;101451.53;5077296;28;20036;-87
2022/09/25 11:44:26;;;;;;;3.30;1.10;;;;;;;16.62;56.95;101453.25;5076175;28;20473;-88
2022/09/25 11:47:03;;;;;;;1.23;0.70;;;;;;;16.74;57.20;101451.97;5076402;28;20056;-84
2022/09/25 11:49:37;;;;;;;1.92;0.75;;;;;;;16.80;55.91;101444.78;5073990;28;20028;-86
2022/09/25 11:52:21;;;;;;;2.67;0.90;;;;;;;16.87;54.75;101444.59;5076097;28;20053;-86
2022/09/25 11:55:11;;;;;;;1.73;0.80;;;;;;;16.74;53.28;101441.50;5076512;28;20037;-85
2022/09/25 11:58:01;;;;;;;2.00;0.80;;;;;;;16.42;54.02;101438.13;5075511;28;20032;-84
2022/09/25 12:01:03;;;;;;;1.83;0.95;;;;;;;16.49;57.46;101432.66;5076622;28;20028;-85
2022/09/25 12:03:50;;;;;;;2.33;1.00;;;;;;;16.63;58.72;101431.38;5075511;28;20025;-88
2022/09/25 12:06:27;;;;;;;1.75;0.82;;;;;;;16.63;56.84;101428.75;5075853;28;20498;-87
2022/09/25 12:09:25;;;;;;;1.13;0.70;;;;;;;16.35;56.71;101430.47;5053696;28;20032;-86
2022/09/25 12:12:16;;;;;;;1.05;0.90;;;;;;;16.09;59.93;101427.75;5052445;28;20064;-85
2022/09/25 12:15:02;;;;;;;1.08;0.90;;;;;;;15.92;57.91;101426.50;5055410;28;20037;-86
2022/09/25 12:17:52;;;;;;;1.52;1.00;;;;;;;15.87;59.38;101415.28;5051721;28;20036;-87
2022/09/25 12:20:52;;;;;;;1.98;0.70;;;;;;;15.98;60.61;101415.81;5056063;28;20037;-86
2022/09/25 12:23:31;;;;;;;2.40;1.00;;;;;;;16.25;59.40;101410.69;5011428;28;20382;-86
2022/09/25 12:26:15;;;;;;;0.77;0.60;;;;;;;16.45;56.56;101410.06;5052506;28;20086;-85
2022/09/25 12:28:44;;;;;;;1.15;0.90;;;;;;;16.55;59.78;101408.03;5040921;28;20036;-85
2022/09/25 12:31:25;;;;;;;3.72;0.73;;;;;;;16.51;56.03;101411.63;5054338;28;20033;-86
2022/09/25 12:34:13;;;;;;;1.70;0.70;;;;;;;16.31;56.72;101412.28;5054941;28;20056;-85
2022/09/25 12:36:44;;;;;;;1.13;0.50;;;;;;;16.17;58.62;101413.53;5055241;28;20025;-86
2022/09/25 12:39:36;;;;;;;1.45;0.70;;;;;;;16.06;58.15;101399.91;5053324;28;20052;-85
2022/09/25 12:42:12;;;;;;;0.95;0.52;;;;;;;16.00;60.46;101397.44;5055206;28;20025;-85
2022/09/25 12:44:51;;;;;;;0.93;0.70;;;;;;;15.92;59.97;101399.44;5047146;28;20115;-85
2022/09/25 12:47:26;;;;;;;4.05;0.90;;;;;;;15.74;60.28;101405.13;5052699;28;20079;-85
2022/09/25 12:50:00;;;;;;;1.85;0.90;;;;;;;15.75;62.26;101404.22;5053245;28;20024;-85